sensor_id;sensor_type;location;lat;lon;timestamp;pressure;altitude;pressure_sealevel;temperature;humidity
11268;BME280;49397;47.474;9.416;2023-05-25T00:00:13;95595.25;;;11.15;77.59
11268;BME280;49397;47.474;9.416;2023-05-25T00:02:43;95594.50;;;11.23;77.87
11268;BME280;49397;47.474;9.416;2023-05-25T00:05:11;95585.41;;;11.24;79.74
11268;BME280;49397;47.474;9.416;2023-05-25T00:07:37;95592.94;;;11.22;80.28
11268;BME280;49397;47.474;9.416;2023-05-25T00:10:03;95582.03;;;11.10;80.49
11268;BME280;49397;47.474;9.416;2023-05-25T00:12:29;95597.06;;;10.97;82.21
11268;BME280;49397;47.474;9.416;2023-05-25T00:14:55;95596.31;;;11.05;81.15
11268;BME280;49397;47.474;9.416;2023-05-25T00:17:20;95593.25;;;10.98;82.22
11268;BME280;49397;47.474;9.416;2023-05-25T00:19:46;95593.69;;;10.92;82.76
11268;BME280;49397;47.474;9.416;2023-05-25T00:22:11;95601.19;;;10.81;82.69
11268;BME280;49397;47.474;9.416;2023-05-25T00:24:38;95593.69;;;10.70;81.60
11268;BME280;49397;47.474;9.416;2023-05-25T00:27:04;95595.97;;;10.62;82.24
11268;BME280;49397;47.474;9.416;2023-05-25T00:29:31;95592.28;;;10.72;83.53
11268;BME280;49397;47.474;9.416;2023-05-25T00:31:57;95592.13;;;10.69;83.19
11268;BME280;49397;47.474;9.416;2023-05-25T00:34:22;95592.53;;;10.62;82.00
11268;BME280;49397;47.474;9.416;2023-05-25T00:36:48;95595.22;;;10.62;82.44
11268;BME280;49397;47.474;9.416;2023-05-25T00:39:18;95594.22;;;10.58;84.20
11268;BME280;49397;47.474;9.416;2023-05-25T00:41:45;95588.28;;;10.61;84.75
11268;BME280;49397;47.474;9.416;2023-05-25T00:44:12;95595.69;;;10.64;84.97
11268;BME280;49397;47.474;9.416;2023-05-25T00:46:46;95591.63;;;10.67;85.80
11268;BME280;49397;47.474;9.416;2023-05-25T00:49:13;95589.06;;;10.61;84.82
11268;BME280;49397;47.474;9.416;2023-05-25T00:51:41;95586.88;;;10.63;85.20
11268;BME280;49397;47.474;9.416;2023-05-25T00:54:06;95579.94;;;10.62;85.07
11268;BME280;49397;47.474;9.416;2023-05-25T00:56:37;95581.28;;;10.51;85.97
11268;BME280;49397;47.474;9.416;2023-05-25T00:59:05;95580.19;;;10.52;86.09
11268;BME280;49397;47.474;9.416;2023-05-25T01:01:36;95582.13;;;10.60;87.19
11268;BME280;49397;47.474;9.416;2023-05-25T01:04:07;95573.25;;;10.51;87.20
11268;BME280;49397;47.474;9.416;2023-05-25T01:06:35;95570.38;;;10.61;87.46
11268;BME280;49397;47.474;9.416;2023-05-25T01:09:06;95566.91;;;10.61;86.90
11268;BME280;49397;47.474;9.416;2023-05-25T01:11:35;95573.41;;;10.46;86.79
11268;BME280;49397;47.474;9.416;2023-05-25T01:14:03;95566.72;;;10.57;86.92
11268;BME280;49397;47.474;9.416;2023-05-25T01:16:28;95572.81;;;10.36;88.16
11268;BME280;49397;47.474;9.416;2023-05-25T01:18:54;95575.91;;;10.29;88.23
11268;BME280;49397;47.474;9.416;2023-05-25T01:24:17;95575.28;;;10.46;88.48
11268;BME280;49397;47.474;9.416;2023-05-25T01:26:54;95575.88;;;10.43;87.84
11268;BME280;49397;47.474;9.416;2023-05-25T01:29:23;95579.31;;;10.43;88.16
11268;BME280;49397;47.474;9.416;2023-05-25T01:31:51;95567.91;;;10.51;87.26
11268;BME280;49397;47.474;9.416;2023-05-25T01:34:18;95575.81;;;10.56;87.78
11268;BME280;49397;47.474;9.416;2023-05-25T01:36:45;95575.19;;;10.59;85.93
11268;BME280;49397;47.474;9.416;2023-05-25T01:39:11;95571.13;;;10.40;87.61
11268;BME280;49397;47.474;9.416;2023-05-25T01:41:37;95559.94;;;10.38;88.36
11268;BME280;49397;47.474;9.416;2023-05-25T01:44:03;95564.88;;;10.44;88.24
11268;BME280;49397;47.474;9.416;2023-05-25T01:46:37;95567.06;;;10.42;88.37
11268;BME280;49397;47.474;9.416;2023-05-25T01:49:28;95561.50;;;10.52;86.63
11268;BME280;49397;47.474;9.416;2023-05-25T01:52:21;95565.47;;;10.41;86.93
11268;BME280;49397;47.474;9.416;2023-05-25T01:54:51;95568.06;;;10.46;87.97
11268;BME280;49397;47.474;9.416;2023-05-25T01:57:18;95571.56;;;10.55;86.77
11268;BME280;49397;47.474;9.416;2023-05-25T01:59:46;95576.31;;;10.58;87.07
11268;BME280;49397;47.474;9.416;2023-05-25T02:02:14;95571.25;;;10.57;86.31
11268;BME280;49397;47.474;9.416;2023-05-25T02:04:41;95569.00;;;10.50;86.79
11268;BME280;49397;47.474;9.416;2023-05-25T02:07:08;95568.34;;;10.45;86.93
11268;BME280;49397;47.474;9.416;2023-05-25T02:09:33;95565.94;;;10.43;86.96
11268;BME280;49397;47.474;9.416;2023-05-25T02:11:59;95566.56;;;10.40;87.23
11268;BME280;49397;47.474;9.416;2023-05-25T02:14:25;95554.91;;;10.36;87.64
11268;BME280;49397;47.474;9.416;2023-05-25T02:16:50;95555.25;;;10.43;87.58
11268;BME280;49397;47.474;9.416;2023-05-25T02:19:16;95561.66;;;10.34;87.08
11268;BME280;49397;47.474;9.416;2023-05-25T02:21:42;95549.31;;;10.24;87.96
11268;BME280;49397;47.474;9.416;2023-05-25T02:24:08;95552.53;;;10.35;88.68
11268;BME280;49397;47.474;9.416;2023-05-25T02:26:35;95553.44;;;10.30;87.21
11268;BME280;49397;47.474;9.416;2023-05-25T02:29:01;95554.66;;;10.24;87.43
11268;BME280;49397;47.474;9.416;2023-05-25T02:31:27;95552.09;;;10.19;88.29
11268;BME280;49397;47.474;9.416;2023-05-25T02:33:53;95547.53;;;10.20;87.63
11268;BME280;49397;47.474;9.416;2023-05-25T02:36:18;95538.53;;;10.16;88.50
11268;BME280;49397;47.474;9.416;2023-05-25T02:38:44;95549.41;;;10.05;88.87
11268;BME280;49397;47.474;9.416;2023-05-25T02:41:11;95554.56;;;10.02;88.70
11268;BME280;49397;47.474;9.416;2023-05-25T02:43:36;95559.19;;;10.10;88.86
11268;BME280;49397;47.474;9.416;2023-05-25T02:46:02;95553.00;;;10.01;89.04
11268;BME280;49397;47.474;9.416;2023-05-25T02:48:27;95544.38;;;10.04;89.35
11268;BME280;49397;47.474;9.416;2023-05-25T02:50:53;95540.44;;;10.01;89.12
11268;BME280;49397;47.474;9.416;2023-05-25T02:53:18;95550.41;;;10.09;89.26
11268;BME280;49397;47.474;9.416;2023-05-25T02:55:43;95547.25;;;10.07;89.08
11268;BME280;49397;47.474;9.416;2023-05-25T02:58:09;95549.03;;;9.98;88.79
11268;BME280;49397;47.474;9.416;2023-05-25T03:00:35;95540.13;;;9.89;88.32
11268;BME280;49397;47.474;9.416;2023-05-25T03:03:02;95539.53;;;9.92;88.98
11268;BME280;49397;47.474;9.416;2023-05-25T03:05:27;95542.09;;;10.11;88.91
11268;BME280;49397;47.474;9.416;2023-05-25T03:07:53;95548.72;;;10.27;88.50
11268;BME280;49397;47.474;9.416;2023-05-25T03:10:18;95549.22;;;10.16;88.08
11268;BME280;49397;47.474;9.416;2023-05-25T03:12:44;95545.38;;;10.08;88.66
11268;BME280;49397;47.474;9.416;2023-05-25T03:15:09;95552.22;;;10.14;88.66
11268;BME280;49397;47.474;9.416;2023-05-25T03:17:37;95557.13;;;10.07;88.63
11268;BME280;49397;47.474;9.416;2023-05-25T03:20:03;95556.75;;;10.00;88.59
11268;BME280;49397;47.474;9.416;2023-05-25T03:22:28;95565.34;;;10.10;89.06
11268;BME280;49397;47.474;9.416;2023-05-25T03:24:54;95565.16;;;9.93;88.94
11268;BME280;49397;47.474;9.416;2023-05-25T03:27:20;95561.25;;;10.13;88.44
11268;BME280;49397;47.474;9.416;2023-05-25T03:29:48;95559.88;;;10.02;89.68
11268;BME280;49397;47.474;9.416;2023-05-25T03:32:14;95551.88;;;10.02;88.62
11268;BME280;49397;47.474;9.416;2023-05-25T03:34:40;95550.81;;;10.03;89.23
11268;BME280;49397;47.474;9.416;2023-05-25T03:37:05;95564.06;;;10.08;89.31
11268;BME280;49397;47.474;9.416;2023-05-25T03:39:31;95559.69;;;10.12;88.85
11268;BME280;49397;47.474;9.416;2023-05-25T03:41:56;95561.00;;;10.01;89.18
11268;BME280;49397;47.474;9.416;2023-05-25T03:44:22;95557.34;;;9.97;89.36
11268;BME280;49397;47.474;9.416;2023-05-25T03:46:48;95557.84;;;9.85;89.13
11268;BME280;49397;47.474;9.416;2023-05-25T03:49:14;95557.75;;;9.90;89.42
11268;BME280;49397;47.474;9.416;2023-05-25T03:51:40;95552.47;;;9.99;88.94
11268;BME280;49397;47.474;9.416;2023-05-25T03:54:05;95554.47;;;10.07;89.35
11268;BME280;49397;47.474;9.416;2023-05-25T03:56:31;95553.00;;;10.15;89.10
11268;BME280;49397;47.474;9.416;2023-05-25T03:58:57;95559.69;;;10.12;90.05
11268;BME280;49397;47.474;9.416;2023-05-25T04:01:24;95550.53;;;9.91;89.89
11268;BME280;49397;47.474;9.416;2023-05-25T04:03:51;95560.00;;;9.83;89.79
11268;BME280;49397;47.474;9.416;2023-05-25T04:06:19;95563.47;;;9.84;90.72
11268;BME280;49397;47.474;9.416;2023-05-25T04:08:45;95573.06;;;9.85;89.97
11268;BME280;49397;47.474;9.416;2023-05-25T04:11:12;95573.75;;;9.90;90.39
11268;BME280;49397;47.474;9.416;2023-05-25T04:13:37;95573.66;;;9.95;89.64
11268;BME280;49397;47.474;9.416;2023-05-25T04:16:05;95579.47;;;10.11;89.79
11268;BME280;49397;47.474;9.416;2023-05-25T04:18:31;95580.47;;;10.15;88.99
11268;BME280;49397;47.474;9.416;2023-05-25T04:20:57;95594.31;;;10.03;89.70
11268;BME280;49397;47.474;9.416;2023-05-25T04:23:23;95597.47;;;10.19;89.63
11268;BME280;49397;47.474;9.416;2023-05-25T04:25:48;95590.75;;;10.22;89.80
11268;BME280;49397;47.474;9.416;2023-05-25T04:28:16;95586.88;;;10.28;88.53
11268;BME280;49397;47.474;9.416;2023-05-25T04:30:41;95598.84;;;10.30;90.11
11268;BME280;49397;47.474;9.416;2023-05-25T04:33:08;95593.59;;;10.25;89.70
11268;BME280;49397;47.474;9.416;2023-05-25T04:35:36;95592.50;;;10.40;89.27
11268;BME280;49397;47.474;9.416;2023-05-25T04:38:02;95589.13;;;10.34;88.86
11268;BME280;49397;47.474;9.416;2023-05-25T04:40:29;95587.47;;;10.25;88.34
11268;BME280;49397;47.474;9.416;2023-05-25T04:42:57;95574.06;;;10.74;93.91
11268;BME280;49397;47.474;9.416;2023-05-25T04:45:23;95570.38;;;12.24;86.91
11268;BME280;49397;47.474;9.416;2023-05-25T04:47:48;95574.91;;;11.67;86.84
11268;BME280;49397;47.474;9.416;2023-05-25T04:50:14;95584.16;;;11.30;86.82
11268;BME280;49397;47.474;9.416;2023-05-25T04:52:39;95589.53;;;11.08;85.76
11268;BME280;49397;47.474;9.416;2023-05-25T04:55:05;95592.34;;;11.03;87.43
11268;BME280;49397;47.474;9.416;2023-05-25T04:57:31;95573.66;;;11.03;84.07
11268;BME280;49397;47.474;9.416;2023-05-25T04:59:57;95584.00;;;11.04;85.17
11268;BME280;49397;47.474;9.416;2023-05-25T05:02:22;95584.53;;;11.06;84.11
11268;BME280;49397;47.474;9.416;2023-05-25T05:04:48;95584.81;;;10.83;84.47
11268;BME280;49397;47.474;9.416;2023-05-25T05:07:18;95586.59;;;10.87;85.59
11268;BME280;49397;47.474;9.416;2023-05-25T05:09:45;95589.25;;;13.86;97.35
11268;BME280;49397;47.474;9.416;2023-05-25T05:12:11;95588.94;;;15.85;92.24
11268;BME280;49397;47.474;9.416;2023-05-25T05:14:36;95586.91;;;16.19;82.87
11268;BME280;49397;47.474;9.416;2023-05-25T05:17:01;95592.81;;;16.73;72.80
11268;BME280;49397;47.474;9.416;2023-05-25T05:19:27;95591.16;;;16.68;73.70
11268;BME280;49397;47.474;9.416;2023-05-25T05:21:53;95590.34;;;16.80;71.38
11268;BME280;49397;47.474;9.416;2023-05-25T05:24:18;95592.16;;;16.76;69.21
11268;BME280;49397;47.474;9.416;2023-05-25T05:26:44;95584.41;;;17.02;68.21
11268;BME280;49397;47.474;9.416;2023-05-25T05:29:10;95587.91;;;16.38;64.45
11268;BME280;49397;47.474;9.416;2023-05-25T05:31:35;95600.63;;;14.50;71.73
11268;BME280;49397;47.474;9.416;2023-05-25T05:34:01;95587.28;;;14.03;72.57
11268;BME280;49397;47.474;9.416;2023-05-25T05:36:27;95606.16;;;13.31;75.75
11268;BME280;49397;47.474;9.416;2023-05-25T05:38:53;95608.25;;;12.83;78.49
11268;BME280;49397;47.474;9.416;2023-05-25T05:41:20;95608.22;;;12.48;79.56
11268;BME280;49397;47.474;9.416;2023-05-25T05:43:45;95608.84;;;12.37;78.47
11268;BME280;49397;47.474;9.416;2023-05-25T05:46:11;95612.78;;;12.39;78.81
11268;BME280;49397;47.474;9.416;2023-05-25T05:48:37;95612.59;;;12.27;80.53
11268;BME280;49397;47.474;9.416;2023-05-25T05:51:04;95618.88;;;12.23;80.11
11268;BME280;49397;47.474;9.416;2023-05-25T05:53:30;95614.16;;;12.11;80.34
11268;BME280;49397;47.474;9.416;2023-05-25T05:55:57;95612.38;;;12.06;79.40
11268;BME280;49397;47.474;9.416;2023-05-25T05:58:27;95610.56;;;11.76;81.76
11268;BME280;49397;47.474;9.416;2023-05-25T06:00:54;95612.38;;;11.98;80.41
11268;BME280;49397;47.474;9.416;2023-05-25T06:03:21;95615.38;;;12.05;82.17
11268;BME280;49397;47.474;9.416;2023-05-25T06:05:47;95609.72;;;12.06;82.17
11268;BME280;49397;47.474;9.416;2023-05-25T06:08:12;95603.44;;;12.11;81.74
11268;BME280;49397;47.474;9.416;2023-05-25T06:10:38;95601.09;;;12.18;80.91
11268;BME280;49397;47.474;9.416;2023-05-25T06:13:04;95592.72;;;12.19;83.73
11268;BME280;49397;47.474;9.416;2023-05-25T06:15:32;95600.59;;;12.16;82.80
11268;BME280;49397;47.474;9.416;2023-05-25T06:17:57;95591.75;;;12.07;81.17
11268;BME280;49397;47.474;9.416;2023-05-25T06:20:23;95596.66;;;12.13;82.15
11268;BME280;49397;47.474;9.416;2023-05-25T06:22:48;95607.25;;;12.27;81.15
11268;BME280;49397;47.474;9.416;2023-05-25T06:25:14;95625.38;;;12.30;80.08
11268;BME280;49397;47.474;9.416;2023-05-25T06:27:40;95624.13;;;12.45;80.76
11268;BME280;49397;47.474;9.416;2023-05-25T06:30:06;95615.94;;;12.41;79.89
11268;BME280;49397;47.474;9.416;2023-05-25T06:32:33;95620.69;;;12.44;79.19
11268;BME280;49397;47.474;9.416;2023-05-25T06:34:58;95621.00;;;12.51;79.68
11268;BME280;49397;47.474;9.416;2023-05-25T06:37:24;95630.94;;;12.59;79.17
11268;BME280;49397;47.474;9.416;2023-05-25T06:39:50;95633.81;;;12.71;78.79
11268;BME280;49397;47.474;9.416;2023-05-25T06:42:15;95629.06;;;12.68;79.63
11268;BME280;49397;47.474;9.416;2023-05-25T06:44:40;95626.88;;;12.88;78.06
11268;BME280;49397;47.474;9.416;2023-05-25T06:47:06;95635.06;;;13.00;78.55
11268;BME280;49397;47.474;9.416;2023-05-25T06:49:32;95631.59;;;13.08;77.82
11268;BME280;49397;47.474;9.416;2023-05-25T06:51:57;95629.72;;;13.08;76.80
11268;BME280;49397;47.474;9.416;2023-05-25T06:54:23;95633.63;;;13.02;77.72
11268;BME280;49397;47.474;9.416;2023-05-25T06:56:48;95638.84;;;12.82;79.20
11268;BME280;49397;47.474;9.416;2023-05-25T06:59:14;95641.53;;;12.99;77.91
11268;BME280;49397;47.474;9.416;2023-05-25T07:01:39;95640.13;;;12.76;75.98
11268;BME280;49397;47.474;9.416;2023-05-25T07:04:05;95651.94;;;12.66;77.38
11268;BME280;49397;47.474;9.416;2023-05-25T07:06:30;95652.25;;;12.64;78.87
11268;BME280;49397;47.474;9.416;2023-05-25T07:08:57;95650.84;;;12.76;78.08
11268;BME280;49397;47.474;9.416;2023-05-25T07:11:22;95662.34;;;12.67;78.34
11268;BME280;49397;47.474;9.416;2023-05-25T07:13:48;95661.72;;;12.70;78.23
11268;BME280;49397;47.474;9.416;2023-05-25T07:16:13;95660.31;;;12.82;78.18
11268;BME280;49397;47.474;9.416;2023-05-25T07:18:40;95661.72;;;12.88;78.93
11268;BME280;49397;47.474;9.416;2023-05-25T07:21:06;95659.38;;;12.95;79.23
11268;BME280;49397;47.474;9.416;2023-05-25T07:23:36;95652.09;;;12.78;79.47
11268;BME280;49397;47.474;9.416;2023-05-25T07:26:02;95656.66;;;12.86;79.96
11268;BME280;49397;47.474;9.416;2023-05-25T07:28:27;95663.31;;;12.89;80.78
11268;BME280;49397;47.474;9.416;2023-05-25T07:30:53;95669.94;;;12.91;79.42
11268;BME280;49397;47.474;9.416;2023-05-25T07:33:18;95669.44;;;12.81;79.18
11268;BME280;49397;47.474;9.416;2023-05-25T07:35:44;95654.63;;;12.74;80.26
11268;BME280;49397;47.474;9.416;2023-05-25T07:38:09;95650.66;;;12.89;79.14
11268;BME280;49397;47.474;9.416;2023-05-25T07:40:35;95653.53;;;12.76;79.45
11268;BME280;49397;47.474;9.416;2023-05-25T07:43:00;95659.53;;;12.72;80.48
11268;BME280;49397;47.474;9.416;2023-05-25T07:45:26;95667.56;;;12.90;78.70
11268;BME280;49397;47.474;9.416;2023-05-25T07:47:51;95669.44;;;12.89;80.49
11268;BME280;49397;47.474;9.416;2023-05-25T07:50:17;95665.38;;;13.09;77.83
11268;BME280;49397;47.474;9.416;2023-05-25T07:52:43;95678.63;;;13.31;77.26
11268;BME280;49397;47.474;9.416;2023-05-25T07:55:08;95681.03;;;13.24;77.25
11268;BME280;49397;47.474;9.416;2023-05-25T07:57:34;95683.19;;;13.56;76.40
11268;BME280;49397;47.474;9.416;2023-05-25T08:00:00;95686.66;;;13.65;75.97
11268;BME280;49397;47.474;9.416;2023-05-25T08:02:26;95671.13;;;13.79;76.38
11268;BME280;49397;47.474;9.416;2023-05-25T08:04:52;95673.97;;;13.83;76.27
11268;BME280;49397;47.474;9.416;2023-05-25T08:07:18;95682.72;;;14.09;76.53
11268;BME280;49397;47.474;9.416;2023-05-25T08:09:44;95692.19;;;14.15;75.35
11268;BME280;49397;47.474;9.416;2023-05-25T08:12:10;95689.09;;;13.96;76.01
11268;BME280;49397;47.474;9.416;2023-05-25T08:14:35;95690.19;;;13.95;77.38
11268;BME280;49397;47.474;9.416;2023-05-25T08:17:01;95689.06;;;14.05;76.25
11268;BME280;49397;47.474;9.416;2023-05-25T08:19:27;95689.59;;;14.27;74.30
11268;BME280;49397;47.474;9.416;2023-05-25T08:21:55;95702.56;;;14.34;74.81
11268;BME280;49397;47.474;9.416;2023-05-25T08:24:21;95703.91;;;14.11;73.72
11268;BME280;49397;47.474;9.416;2023-05-25T08:26:46;95703.53;;;13.74;73.53
11268;BME280;49397;47.474;9.416;2023-05-25T08:29:13;95704.63;;;13.82;75.07
11268;BME280;49397;47.474;9.416;2023-05-25T08:31:38;95703.50;;;13.83;73.45
11268;BME280;49397;47.474;9.416;2023-05-25T08:34:06;95703.25;;;14.14;73.12
11268;BME280;49397;47.474;9.416;2023-05-25T08:36:31;95708.34;;;14.53;72.06
11268;BME280;49397;47.474;9.416;2023-05-25T08:38:58;95712.41;;;14.59;70.74
11268;BME280;49397;47.474;9.416;2023-05-25T08:41:23;95714.75;;;14.69;70.95
11268;BME280;49397;47.474;9.416;2023-05-25T08:43:49;95719.94;;;14.74;71.38
11268;BME280;49397;47.474;9.416;2023-05-25T08:46:29;95725.53;;;14.90;72.30
11268;BME280;49397;47.474;9.416;2023-05-25T08:49:02;95728.34;;;14.73;70.68
11268;BME280;49397;47.474;9.416;2023-05-25T08:51:37;95729.28;;;14.68;69.53
11268;BME280;49397;47.474;9.416;2023-05-25T08:54:08;95739.25;;;14.76;70.89
11268;BME280;49397;47.474;9.416;2023-05-25T08:56:48;95734.97;;;14.75;70.80
11268;BME280;49397;47.474;9.416;2023-05-25T08:59:21;95736.84;;;14.75;71.84
11268;BME280;49397;47.474;9.416;2023-05-25T09:01:52;95741.34;;;14.62;73.86
11268;BME280;49397;47.474;9.416;2023-05-25T09:04:21;95749.25;;;14.67;72.66
11268;BME280;49397;47.474;9.416;2023-05-25T09:06:47;95742.53;;;14.82;71.19
11268;BME280;49397;47.474;9.416;2023-05-25T09:09:13;95747.44;;;15.30;71.65
11268;BME280;49397;47.474;9.416;2023-05-25T09:11:39;95750.53;;;15.41;68.18
11268;BME280;49397;47.474;9.416;2023-05-25T09:14:06;95756.56;;;15.79;69.28
11268;BME280;49397;47.474;9.416;2023-05-25T09:16:33;95747.06;;;15.94;69.28
11268;BME280;49397;47.474;9.416;2023-05-25T09:19:01;95750.03;;;16.01;65.80
11268;BME280;49397;47.474;9.416;2023-05-25T09:21:26;95751.63;;;15.81;66.95
11268;BME280;49397;47.474;9.416;2023-05-25T09:23:52;95748.06;;;15.89;67.58
11268;BME280;49397;47.474;9.416;2023-05-25T09:26:17;95757.69;;;16.11;68.54
11268;BME280;49397;47.474;9.416;2023-05-25T09:28:44;95769.19;;;16.32;69.00
11268;BME280;49397;47.474;9.416;2023-05-25T09:31:11;95764.47;;;16.29;65.61
11268;BME280;49397;47.474;9.416;2023-05-25T09:33:37;95765.88;;;16.59;69.06
11268;BME280;49397;47.474;9.416;2023-05-25T09:36:05;95771.28;;;16.59;65.97
11268;BME280;49397;47.474;9.416;2023-05-25T09:38:31;95765.31;;;16.66;64.66
11268;BME280;49397;47.474;9.416;2023-05-25T09:40:58;95778.50;;;16.79;65.82
11268;BME280;49397;47.474;9.416;2023-05-25T09:43:23;95771.53;;;16.90;64.26
11268;BME280;49397;47.474;9.416;2023-05-25T09:45:51;95767.56;;;16.76;63.03
11268;BME280;49397;47.474;9.416;2023-05-25T09:48:17;95772.66;;;16.89;63.77
11268;BME280;49397;47.474;9.416;2023-05-25T09:50:43;95766.78;;;17.12;62.99
11268;BME280;49397;47.474;9.416;2023-05-25T09:53:09;95766.72;;;17.48;65.25
11268;BME280;49397;47.474;9.416;2023-05-25T09:55:36;95770.66;;;17.63;64.76
11268;BME280;49397;47.474;9.416;2023-05-25T09:58:01;95767.50;;;17.61;63.72
11268;BME280;49397;47.474;9.416;2023-05-25T10:00:27;95776.75;;;17.87;61.88
11268;BME280;49397;47.474;9.416;2023-05-25T10:02:53;95780.59;;;17.86;62.75
11268;BME280;49397;47.474;9.416;2023-05-25T10:05:18;95783.25;;;17.71;62.29
11268;BME280;49397;47.474;9.416;2023-05-25T10:07:49;95782.03;;;17.56;62.69
11268;BME280;49397;47.474;9.416;2023-05-25T10:10:15;95777.91;;;17.74;62.21
11268;BME280;49397;47.474;9.416;2023-05-25T10:12:42;95780.84;;;17.81;60.98
11268;BME280;49397;47.474;9.416;2023-05-25T10:15:10;95781.25;;;17.95;64.03
11268;BME280;49397;47.474;9.416;2023-05-25T10:17:41;95789.22;;;18.20;64.32
11268;BME280;49397;47.474;9.416;2023-05-25T10:20:08;95778.19;;;18.25;61.96
11268;BME280;49397;47.474;9.416;2023-05-25T10:25:32;95791.34;;;18.85;61.90
11268;BME280;49397;47.474;9.416;2023-05-25T10:28:01;95799.63;;;18.92;59.80
11268;BME280;49397;47.474;9.416;2023-05-25T10:30:29;95795.19;;;19.00;60.71
11268;BME280;49397;47.474;9.416;2023-05-25T10:32:55;95797.75;;;19.28;59.19
11268;BME280;49397;47.474;9.416;2023-05-25T10:35:24;95797.75;;;19.43;57.28
11268;BME280;49397;47.474;9.416;2023-05-25T10:37:51;95795.78;;;18.93;57.79
11268;BME280;49397;47.474;9.416;2023-05-25T10:40:18;95798.41;;;19.06;57.73
11268;BME280;49397;47.474;9.416;2023-05-25T10:42:45;95793.16;;;19.13;58.70
11268;BME280;49397;47.474;9.416;2023-05-25T10:45:11;95799.16;;;19.72;57.45
11268;BME280;49397;47.474;9.416;2023-05-25T10:47:39;95798.44;;;19.75;55.70
11268;BME280;49397;47.474;9.416;2023-05-25T10:50:26;95800.88;;;19.61;57.65
11268;BME280;49397;47.474;9.416;2023-05-25T10:53:04;95798.38;;;19.72;56.14
11268;BME280;49397;47.474;9.416;2023-05-25T10:58:13;95802.09;;;19.83;57.17
11268;BME280;49397;47.474;9.416;2023-05-25T11:00:39;95805.84;;;20.32;56.84
11268;BME280;49397;47.474;9.416;2023-05-25T11:03:06;95801.88;;;20.11;54.83
11268;BME280;49397;47.474;9.416;2023-05-25T11:05:33;95806.47;;;20.26;54.75
11268;BME280;49397;47.474;9.416;2023-05-25T11:08:08;95807.47;;;20.37;56.45
11268;BME280;49397;47.474;9.416;2023-05-25T11:18:43;95814.69;;;20.29;55.10
11268;BME280;49397;47.474;9.416;2023-05-25T11:23:56;95806.94;;;20.50;52.86
11268;BME280;49397;47.474;9.416;2023-05-25T11:26:24;95803.78;;;20.68;53.67
11268;BME280;49397;47.474;9.416;2023-05-25T11:28:51;95803.75;;;20.90;52.58
11268;BME280;49397;47.474;9.416;2023-05-25T11:31:30;95804.47;;;20.87;51.33
11268;BME280;49397;47.474;9.416;2023-05-25T11:33:57;95802.41;;;21.03;52.35
11268;BME280;49397;47.474;9.416;2023-05-25T11:36:23;95807.00;;;21.22;51.77
11268;BME280;49397;47.474;9.416;2023-05-25T11:38:51;95799.19;;;21.43;52.23
11268;BME280;49397;47.474;9.416;2023-05-25T11:41:20;95800.84;;;21.25;50.73
11268;BME280;49397;47.474;9.416;2023-05-25T11:43:50;95804.84;;;20.86;54.38
11268;BME280;49397;47.474;9.416;2023-05-25T11:46:16;95813.97;;;21.20;51.05
11268;BME280;49397;47.474;9.416;2023-05-25T11:51:16;95802.97;;;21.91;50.10
11268;BME280;49397;47.474;9.416;2023-05-25T11:53:46;95798.03;;;22.34;52.04
11268;BME280;49397;47.474;9.416;2023-05-25T11:56:12;95803.66;;;21.58;52.79
11268;BME280;49397;47.474;9.416;2023-05-25T11:58:39;95809.78;;;21.26;51.68
11268;BME280;49397;47.474;9.416;2023-05-25T12:01:16;95804.41;;;21.29;52.54
11268;BME280;49397;47.474;9.416;2023-05-25T12:03:43;95803.34;;;21.90;50.37
11268;BME280;49397;47.474;9.416;2023-05-25T12:06:31;95802.47;;;21.56;52.26
11268;BME280;49397;47.474;9.416;2023-05-25T12:09:01;95801.22;;;21.24;51.89
11268;BME280;49397;47.474;9.416;2023-05-25T12:11:34;95796.28;;;22.19;52.39
11268;BME280;49397;47.474;9.416;2023-05-25T12:14:03;95797.09;;;21.89;51.21
11268;BME280;49397;47.474;9.416;2023-05-25T12:16:30;95795.63;;;22.29;50.86
11268;BME280;49397;47.474;9.416;2023-05-25T12:18:56;95804.53;;;21.92;52.32
11268;BME280;49397;47.474;9.416;2023-05-25T12:21:22;95803.56;;;22.07;50.75
11268;BME280;49397;47.474;9.416;2023-05-25T12:23:49;95792.75;;;22.14;51.20
11268;BME280;49397;47.474;9.416;2023-05-25T12:26:16;95796.47;;;22.33;51.86
11268;BME280;49397;47.474;9.416;2023-05-25T12:29:01;95791.19;;;22.50;50.48
11268;BME280;49397;47.474;9.416;2023-05-25T12:31:29;95801.03;;;21.92;50.16
11268;BME280;49397;47.474;9.416;2023-05-25T12:34:21;95793.03;;;22.76;50.35
11268;BME280;49397;47.474;9.416;2023-05-25T12:36:52;95794.94;;;22.72;49.56
11268;BME280;49397;47.474;9.416;2023-05-25T12:42:01;95804.25;;;22.34;49.54
11268;BME280;49397;47.474;9.416;2023-05-25T12:44:29;95797.91;;;22.60;50.25
11268;BME280;49397;47.474;9.416;2023-05-25T12:49:40;95809.34;;;23.13;49.42
11268;BME280;49397;47.474;9.416;2023-05-25T12:52:07;95803.47;;;23.62;48.59
11268;BME280;49397;47.474;9.416;2023-05-25T12:54:44;95806.88;;;23.45;47.17
11268;BME280;49397;47.474;9.416;2023-05-25T12:57:12;95807.59;;;22.91;50.58
11268;BME280;49397;47.474;9.416;2023-05-25T12:59:38;95801.44;;;23.01;48.40
11268;BME280;49397;47.474;9.416;2023-05-25T13:02:05;95799.25;;;22.73;50.17
11268;BME280;49397;47.474;9.416;2023-05-25T13:04:32;95806.28;;;22.41;50.24
11268;BME280;49397;47.474;9.416;2023-05-25T13:06:58;95796.09;;;22.01;49.79
11268;BME280;49397;47.474;9.416;2023-05-25T13:09:24;95805.03;;;22.35;51.38
11268;BME280;49397;47.474;9.416;2023-05-25T13:11:54;95792.78;;;22.51;50.56
11268;BME280;49397;47.474;9.416;2023-05-25T13:14:20;95793.78;;;22.73;49.86
11268;BME280;49397;47.474;9.416;2023-05-25T13:16:48;95798.13;;;22.44;51.20
11268;BME280;49397;47.474;9.416;2023-05-25T13:19:14;95803.28;;;22.53;51.09
11268;BME280;49397;47.474;9.416;2023-05-25T13:21:39;95804.03;;;22.50;52.11
11268;BME280;49397;47.474;9.416;2023-05-25T13:24:05;95802.81;;;22.44;50.79
11268;BME280;49397;47.474;9.416;2023-05-25T13:26:30;95800.06;;;22.77;49.98